Time;durP1;ratioP1;P1;durP2;ratioP2;P2;SDS_P1;SDS_P2;PMS_P1;PMS_P2;Temp;Humidity;BMP_temperature;BMP_pressure;BME280_temperature;BME280_humidity;BME280_pressure;Samples;Min_cycle;Max_cycle;Signal;HPM_P1;HPM_P2
2022/06/25 00:03:53;;;;;;;0.35;0.20;;;;;;;17.86;100.00;100849.03;10538108;28;20044;-78
2022/06/25 00:08:55;;;;;;;0.63;0.35;;;;;;;17.90;100.00;100850.75;10551027;28;20101;-79
2022/06/25 00:13:57;;;;;;;0.10;0.10;;;;;;;17.98;100.00;100850.75;10532352;28;20181;-78
2022/06/25 00:18:59;;;;;;;0.25;0.20;;;;;;;17.75;100.00;100862.13;10540358;28;20086;-78
2022/06/25 00:24:01;;;;;;;0.40;0.20;;;;;;;17.77;100.00;100868.16;10528157;28;20039;-78
2022/06/25 00:29:02;;;;;;;0.45;0.45;;;;;;;17.76;100.00;100869.03;10540488;28;20044;-78
2022/06/25 00:34:05;;;;;;;0.25;0.25;;;;;;;17.56;100.00;100868.25;10523002;28;20052;-78
2022/06/25 00:39:06;;;;;;;0.32;0.30;;;;;;;17.66;100.00;100869.97;10527535;28;20450;-78
2022/06/25 00:44:09;;;;;;;0.40;0.20;;;;;;;17.68;100.00;100873.44;10522444;28;20042;-79
2022/06/25 00:49:11;;;;;;;0.85;0.43;;;;;;;17.68;100.00;100875.16;10544787;28;20043;-78
2022/06/25 00:54:16;;;;;;;0.17;0.10;;;;;;;17.67;100.00;100876.91;10535419;28;20088;-78
2022/06/25 00:59:26;;;;;;;0.52;0.45;;;;;;;17.54;100.00;100880.41;10530367;28;20039;-78
2022/06/25 01:04:29;;;;;;;1.67;0.50;;;;;;;17.56;100.00;100882.16;10526853;28;20535;-78
2022/06/25 01:09:31;;;;;;;0.20;0.20;;;;;;;17.41;100.00;100892.63;10543343;28;20051;-79
2022/06/25 01:14:32;;;;;;;0.22;0.20;;;;;;;17.43;100.00;100896.97;10533319;28;20032;-78
2022/06/25 01:19:35;;;;;;;0.30;0.20;;;;;;;17.42;100.00;100897.81;10507330;28;20047;-78
2022/06/25 01:24:37;;;;;;;0.47;0.40;;;;;;;17.05;100.00;100905.69;10555680;28;20055;-79
2022/06/25 01:29:40;;;;;;;2.05;0.22;;;;;;;17.16;100.00;100912.66;10523232;28;20044;-78
2022/06/25 01:34:42;;;;;;;0.70;0.55;;;;;;;17.23;100.00;100916.97;10516878;28;20040;-78
2022/06/25 01:39:43;;;;;;;0.20;0.20;;;;;;;17.18;100.00;100921.28;10519367;28;20043;-77
2022/06/25 01:44:45;;;;;;;0.10;0.10;;;;;;;17.06;100.00;100922.16;10537356;28;20510;-78
2022/06/25 01:49:49;;;;;;;1.25;0.38;;;;;;;17.05;100.00;100929.13;10516371;28;20055;-78
2022/06/25 01:54:51;;;;;;;0.50;0.40;;;;;;;17.06;100.00;100933.47;10519288;28;20040;-79
2022/06/25 01:59:53;;;;;;;0.28;0.05;;;;;;;17.09;100.00;100941.25;10527223;28;20051;-79
2022/06/25 02:04:55;;;;;;;0.20;0.17;;;;;;;17.03;100.00;100938.66;10529016;28;20075;-78
2022/06/25 02:09:57;;;;;;;0.25;0.10;;;;;;;17.11;100.00;100952.53;10526801;28;20461;-78
2022/06/25 02:14:58;;;;;;;0.00;0.00;;;;;;;17.12;100.00;100948.22;10511251;28;20040;-79
2022/06/25 02:20:00;;;;;;;0.00;0.00;;;;;;;17.04;100.00;100955.16;10520794;28;20044;-78
2022/06/25 02:25:04;;;;;;;1.27;0.38;;;;;;;17.10;100.00;100950.81;10533110;28;20430;-78
2022/06/25 02:30:07;;;;;;;0.45;0.22;;;;;;;17.07;99.92;100950.81;10551117;28;20052;-78
2022/06/25 02:35:09;;;;;;;0.00;0.00;;;;;;;17.02;100.00;100962.94;10501093;28;20381;-78
2022/06/25 02:40:12;;;;;;;0.40;0.30;;;;;;;16.77;100.00;100973.31;10532347;28;20110;-78
2022/06/25 02:45:16;;;;;;;0.03;0.03;;;;;;;16.73;100.00;100987.19;10516619;28;20073;-79
2022/06/25 02:50:23;;;;;;;0.03;0.03;;;;;;;16.86;100.00;100982.00;10485297;28;20412;-79
2022/06/25 03:00:46;;;;;;;0.10;0.10;;;;;;;16.63;100.00;100995.84;10511737;28;20040;-79
2022/06/25 03:05:48;;;;;;;0.73;0.63;;;;;;;16.74;100.00;100988.91;10524188;28;20044;-78
2022/06/25 03:10:51;;;;;;;1.00;0.75;;;;;;;16.74;100.00;100999.31;10520356;28;20048;-79
2022/06/25 03:15:53;;;;;;;2.38;0.60;;;;;;;16.75;100.00;101008.88;10503465;28;20033;-79
2022/06/25 03:20:56;;;;;;;0.32;0.20;;;;;;;16.78;100.00;101016.69;10521034;28;20049;-79
2022/06/25 03:25:58;;;;;;;4.20;0.40;;;;;;;16.84;100.00;101005.41;10515732;28;20063;-79
2022/06/25 03:31:01;;;;;;;0.13;0.13;;;;;;;16.83;100.00;101010.63;10533544;28;20067;-78
2022/06/25 03:36:03;;;;;;;0.17;0.10;;;;;;;16.83;100.00;101008.00;10520623;28;20044;-78
2022/06/25 03:46:36;;;;;;;0.10;0.10;;;;;;;16.89;100.00;101018.44;10526326;28;20056;-78
2022/06/25 03:51:38;;;;;;;0.30;0.20;;;;;;;16.86;100.00;101018.44;10537640;28;20044;-76
2022/06/25 03:56:41;;;;;;;1.13;0.47;;;;;;;16.82;100.00;101030.59;10557072;28;20040;-75
2022/06/25 04:01:42;;;;;;;0.10;0.10;;;;;;;16.84;100.00;101027.97;10530899;28;20036;-76
2022/06/25 04:06:46;;;;;;;0.10;0.10;;;;;;;16.88;100.00;101032.31;10557609;28;20135;-76
2022/06/25 04:11:47;;;;;;;0.43;0.30;;;;;;;16.77;100.00;101051.38;10545938;28;20032;-76
2022/06/25 04:16:49;;;;;;;0.28;0.22;;;;;;;16.89;100.00;101040.13;10546173;28;20052;-76
2022/06/25 04:21:51;;;;;;;0.17;0.17;;;;;;;16.96;100.00;101041.03;10534612;28;20376;-75
2022/06/25 04:26:53;;;;;;;0.57;0.47;;;;;;;17.11;100.00;101037.59;10506437;28;20514;-75
2022/06/25 04:31:55;;;;;;;0.57;0.30;;;;;;;17.37;100.00;101032.41;10542181;28;20052;-75
2022/06/25 04:37:25;;;;;;;0.43;0.20;;;;;;;17.28;100.00;101042.81;10533451;28;20048;-75
2022/06/25 04:42:26;;;;;;;0.10;0.05;;;;;;;17.40;100.00;101044.53;10524690;28;20434;-76
2022/06/25 04:47:29;;;;;;;0.20;0.20;;;;;;;17.58;100.00;101046.28;10530700;28;20063;-75
2022/06/25 04:52:49;;;;;;;;;;;;;;;17.76;100.00;101047.97;10529834;28;20071;-75
2022/06/25 04:57:51;;;;;;;0.38;0.25;;;;;;;17.78;100.00;101054.06;10501468;28;20003;-75
2022/06/25 05:03:22;;;;;;;0.20;0.17;;;;;;;17.93;100.00;101055.75;10514392;28;20040;-76
2022/06/25 05:08:42;;;;;;;;;;;;;;;18.26;99.34;101066.13;10528247;28;20052;-76
2022/06/25 05:13:44;;;;;;;0.22;0.22;;;;;;;18.32;99.13;101059.16;10527118;28;20014;-76
2022/06/25 05:18:48;;;;;;;0.82;0.60;;;;;;;18.33;99.19;101067.84;10523007;28;20059;-75
2022/06/25 05:23:50;;;;;;;1.30;0.30;;;;;;;18.37;98.16;101069.59;10531194;28;20040;-75
2022/06/25 05:28:52;;;;;;;0.00;0.00;;;;;;;18.66;98.46;101065.97;10507415;28;20044;-75
2022/06/25 05:33:59;;;;;;;0.40;0.20;;;;;;;18.70;98.32;101067.69;10518993;28;20059;-75
2022/06/25 05:39:00;;;;;;;0.32;0.20;;;;;;;18.54;97.00;101078.19;10544375;28;20043;-75
2022/06/25 05:44:02;;;;;;;0.47;0.35;;;;;;;18.71;97.90;101088.56;10504191;28;20047;-75
2022/06/25 05:49:03;;;;;;;0.50;0.35;;;;;;;18.65;96.76;101080.75;10547075;28;20453;-75
2022/06/25 05:54:16;;;;;;;0.30;0.30;;;;;;;18.99;98.06;101090.16;10538734;28;20040;-75
2022/06/25 05:59:17;;;;;;;0.00;0.00;;;;;;;19.10;97.78;101098.81;10551891;28;20105;-75
2022/06/25 06:04:19;;;;;;;0.60;0.40;;;;;;;19.24;97.21;101103.97;10520956;28;20415;-75
2022/06/25 06:09:20;;;;;;;0.47;0.43;;;;;;;19.37;95.83;101104.72;10538344;28;20054;-75
2022/06/25 06:14:22;;;;;;;0.57;0.35;;;;;;;19.41;93.54;101098.59;10529394;28;20037;-75
2022/06/25 06:19:24;;;;;;;0.32;0.25;;;;;;;19.63;91.94;101104.50;10534784;28;20047;-75
2022/06/25 06:24:26;;;;;;;0.52;0.43;;;;;;;19.97;91.71;101104.25;10543072;28;20434;-76
2022/06/25 06:29:28;;;;;;;0.20;0.10;;;;;;;19.74;90.32;101116.63;10519218;28;20376;-75
2022/06/25 06:34:30;;;;;;;1.45;0.55;;;;;;;19.78;91.16;101113.97;10547302;28;20036;-76
2022/06/25 06:39:31;;;;;;;0.13;0.10;;;;;;;19.90;86.12;101097.34;10519005;28;20449;-75
2022/06/25 06:44:34;;;;;;;0.28;0.28;;;;;;;20.36;86.26;101105.59;10536911;28;20480;-75
2022/06/25 06:49:38;;;;;;;0.17;0.10;;;;;;;20.51;85.43;101105.41;10518045;28;20491;-76
2022/06/25 06:54:40;;;;;;;1.23;0.35;;;;;;;20.81;83.06;101108.53;10528621;28;20090;-75
2022/06/25 06:59:42;;;;;;;2.00;0.45;;;;;;;21.21;78.58;101102.72;10526424;28;20044;-75
2022/06/25 07:04:44;;;;;;;0.10;0.10;;;;;;;21.19;79.01;101103.63;10532052;28;20048;-75
2022/06/25 07:09:46;;;;;;;0.85;0.75;;;;;;;21.86;77.12;101099.03;10525538;28;20044;-75
2022/06/25 07:14:48;;;;;;;0.28;0.28;;;;;;;21.89;77.11;101099.88;10540600;28;20044;-76
2022/06/25 07:19:52;;;;;;;0.70;0.13;;;;;;;21.96;76.69;101099.75;10533136;28;20051;-76
2022/06/25 07:24:53;;;;;;;0.90;0.43;;;;;;;22.05;73.93;101106.59;10540890;28;20498;-75
2022/06/25 07:29:55;;;;;;;0.25;0.25;;;;;;;22.26;74.50;101104.44;10538359;28;20097;-76
2022/06/25 07:34:56;;;;;;;0.10;0.10;;;;;;;22.70;72.70;101105.31;10536574;28;20040;-76
2022/06/25 07:39:58;;;;;;;0.10;0.10;;;;;;;22.66;72.87;101107.13;10525928;28;20044;-76
2022/06/25 07:45:00;;;;;;;0.95;0.32;;;;;;;22.80;71.93;101106.84;10535170;28;20514;-76
2022/06/25 07:55:27;;;;;;;0.70;0.60;;;;;;;23.54;68.74;101103.41;10542393;28;20043;-76
2022/06/25 08:00:30;;;;;;;0.20;0.20;;;;;;;23.25;67.40;101103.22;10525655;28;20054;-75
2022/06/25 08:05:33;;;;;;;0.13;0.13;;;;;;;22.21;70.86;101111.53;10529990;28;20076;-76
2022/06/25 08:10:38;;;;;;;0.00;0.00;;;;;;;22.12;69.73;101108.19;10515834;28;20043;-75
2022/06/25 08:15:39;;;;;;;0.10;0.10;;;;;;;22.39;70.64;101111.19;10537488;28;20036;-75
2022/06/25 08:20:41;;;;;;;0.25;0.13;;;;;;;23.25;66.55;101116.38;10531662;28;20040;-76
2022/06/25 08:25:58;;;;;;;1.45;0.45;;;;;;;24.20;67.51;101112.22;10517143;28;20173;-75
2022/06/25 08:30:59;;;;;;;0.30;0.17;;;;;;;23.71;65.84;101122.28;10536003;28;20048;-76
2022/06/25 08:36:01;;;;;;;0.35;0.35;;;;;;;22.66;68.93;101127.28;10520901;28;20081;-76
2022/06/25 08:41:02;;;;;;;0.17;0.13;;;;;;;21.97;68.11;101126.84;10505335;28;20074;-76
2022/06/25 08:46:05;;;;;;;0.57;0.22;;;;;;;22.46;67.01;101131.19;10550151;28;20036;-75
2022/06/25 08:51:08;;;;;;;0.10;0.10;;;;;;;23.89;61.80;101130.56;10545947;28;20498;-75
2022/06/25 08:56:13;;;;;;;0.75;0.43;;;;;;;23.77;63.72;101127.38;10543162;28;20052;-75
2022/06/25 09:01:15;;;;;;;0.10;0.10;;;;;;;23.83;63.64;101126.31;10514448;28;20085;-76
2022/06/25 09:06:20;;;;;;;0.22;0.15;;;;;;;23.81;61.23;101122.00;10522908;28;20036;-75
2022/06/25 09:11:26;;;;;;;0.10;0.10;;;;;;;23.73;60.76;101124.84;10528919;28;20571;-76
2022/06/25 09:16:29;;;;;;;0.10;0.10;;;;;;;22.82;64.22;101128.69;10526706;28;20044;-75
2022/06/25 09:21:41;;;;;;;2.60;0.98;;;;;;;24.62;60.43;101121.56;10517705;28;20109;-75
2022/06/25 09:26:52;;;;;;;0.40;0.20;;;;;;;23.70;64.33;101124.91;10540607;28;20471;-76
2022/06/25 09:31:53;;;;;;;0.30;0.17;;;;;;;23.16;62.23;101128.84;10524796;28;20047;-76
2022/06/25 09:37:15;;;;;;;0.20;0.10;;;;;;;23.76;59.94;101128.28;10508592;28;20048;-75
2022/06/25 09:42:31;;;;;;;0.22;0.15;;;;;;;24.43;56.99;101115.97;10541017;28;20115;-76
2022/06/25 09:47:34;;;;;;;0.28;0.10;;;;;;;25.05;58.04;101124.69;10515925;28;20044;-75
2022/06/25 09:52:47;;;;;;;0.10;0.10;;;;;;;24.80;56.05;101119.31;10521820;28;20119;-75
2022/06/25 09:57:51;;;;;;;0.10;0.10;;;;;;;25.47;55.77;101120.78;10524629;28;20051;-76
2022/06/25 10:02:56;;;;;;;0.05;0.05;;;;;;;25.80;53.93;101117.91;10540613;28;20048;-76
2022/06/25 10:07:59;;;;;;;0.00;0.00;;;;;;;25.70;52.48;101121.78;10549717;28;20089;-77
2022/06/25 10:13:03;;;;;;;0.20;0.20;;;;;;;23.97;55.74;101112.84;10549612;28;20054;-76
2022/06/25 10:18:07;;;;;;;0.35;0.13;;;;;;;23.92;56.79;101125.25;10534305;28;20099;-75
2022/06/25 10:23:11;;;;;;;0.08;0.08;;;;;;;23.80;60.13;101130.81;10533368;28;20044;-76
2022/06/25 10:28:14;;;;;;;0.22;0.10;;;;;;;24.35;58.32;101116.19;10554774;28;20040;-77
2022/06/25 10:33:18;;;;;;;0.75;0.45;;;;;;;23.85;57.66;101113.16;10551596;28;20066;-76
2022/06/25 10:38:22;;;;;;;0.57;0.35;;;;;;;23.57;59.91;101109.47;10570389;28;20457;-76
2022/06/25 10:43:42;;;;;;;0.03;0.00;;;;;;;24.25;60.66;101112.09;10530069;28;20077;-76
2022/06/25 10:49:11;;;;;;;0.28;0.00;;;;;;;23.67;59.60;101123.25;10539247;28;20046;-75
2022/06/25 10:54:23;;;;;;;0.07;0.07;;;;;;;23.59;61.24;101119.94;10528456;28;20445;-75
2022/06/25 10:59:35;;;;;;;0.10;0.10;;;;;;;23.44;60.85;101113.31;10549851;28;20085;-75
2022/06/25 11:04:37;;;;;;;0.10;0.10;;;;;;;24.02;59.92;101116.22;10542836;28;20044;-75
2022/06/25 11:09:50;;;;;;;0.00;0.00;;;;;;;24.32;59.84;101113.63;10540223;28;20584;-75
2022/06/25 11:15:00;;;;;;;0.00;0.00;;;;;;;23.62;58.92;101117.25;10537690;28;20040;-75
2022/06/25 11:20:12;;;;;;;0.00;0.00;;;;;;;24.19;61.16;101112.25;10530721;28;20442;-75
2022/06/25 11:30:36;;;;;;;0.00;0.00;;;;;;;24.01;58.75;101109.25;10511726;28;20041;-76
2022/06/25 11:35:40;;;;;;;0.30;0.20;;;;;;;25.19;50.41;101117.22;10541606;28;20048;-75
2022/06/25 11:40:42;;;;;;;0.10;0.10;;;;;;;24.77;53.33;101125.56;10533875;28;20535;-75
2022/06/25 11:45:51;;;;;;;0.03;0.03;;;;;;;24.00;56.69;101123.31;10516280;28;20459;-75
2022/06/25 11:50:56;;;;;;;0.00;0.00;;;;;;;24.47;56.14;101132.53;10502678;28;20043;-75
2022/06/25 11:56:06;;;;;;;0.00;0.00;;;;;;;24.83;55.18;101129.78;10515372;28;20039;-75
2022/06/25 12:01:09;;;;;;;0.00;0.00;;;;;;;26.27;52.58;101125.94;10511172;28;20098;-76
2022/06/25 12:06:10;;;;;;;0.17;0.10;;;;;;;25.71;51.94;101120.88;10524466;28;20036;-77
2022/06/25 12:11:12;;;;;;;0.00;0.00;;;;;;;25.21;53.17;101125.06;10540233;28;20050;-75
2022/06/25 12:16:15;;;;;;;0.00;0.00;;;;;;;25.78;52.16;101114.47;10520808;28;20413;-76
2022/06/25 12:21:20;;;;;;;0.45;0.13;;;;;;;25.54;52.51;101126.72;10537200;28;20132;-74
2022/06/25 12:26:52;;;;;;;0.30;0.00;;;;;;;25.08;55.84;101129.00;10507013;28;20070;-74
2022/06/25 12:31:56;;;;;;;0.03;0.03;;;;;;;25.30;55.25;101122.16;10523086;28;20044;-76
2022/06/25 12:37:02;;;;;;;0.20;0.10;;;;;;;25.47;55.06;101131.31;10512866;28;20097;-75
2022/06/25 12:42:04;;;;;;;0.00;0.00;;;;;;;26.47;52.46;101124.34;10547248;28;20047;-74
2022/06/25 12:47:07;;;;;;;0.05;0.05;;;;;;;26.55;52.52;101132.81;10523828;28;20084;-75
2022/06/25 12:52:12;;;;;;;0.20;0.15;;;;;;;26.59;51.42;101134.44;10540635;28;20047;-75
2022/06/25 12:57:35;;;;;;;0.00;0.00;;;;;;;25.49;53.19;101145.31;10522171;28;20040;-76
2022/06/25 13:02:37;;;;;;;0.05;0.00;;;;;;;26.24;52.38;101135.75;10539017;28;20047;-75
2022/06/25 13:07:45;;;;;;;1.25;0.68;;;;;;;26.27;51.49;101133.84;10538944;28;20040;-75
2022/06/25 13:12:50;;;;;;;0.40;0.40;;;;;;;26.76;48.70;101139.13;10549990;28;20043;-75
2022/06/25 13:17:52;;;;;;;0.60;0.10;;;;;;;24.98;51.64;101138.97;10523069;28;20384;-75
2022/06/25 13:22:54;;;;;;;0.30;0.20;;;;;;;25.25;52.32;101131.09;10520209;28;20044;-75
2022/06/25 13:27:59;;;;;;;0.00;0.00;;;;;;;26.16;52.83;101119.31;10522743;28;20048;-75
2022/06/25 13:33:00;;;;;;;0.10;0.10;;;;;;;25.77;52.22;101118.00;10537318;28;20063;-75
2022/06/25 13:38:03;;;;;;;0.00;0.00;;;;;;;25.50;52.89;101121.53;10519763;28;20495;-75
2022/06/25 13:43:11;;;;;;;4.85;0.32;;;;;;;25.29;52.54;101123.06;10542054;28;20043;-75
2022/06/25 13:48:12;;;;;;;0.00;0.00;;;;;;;26.01;50.63;101116.28;10519114;28;20047;-76
2022/06/25 13:53:14;;;;;;;0.30;0.20;;;;;;;25.17;49.75;101128.72;10528727;28;20039;-76
2022/06/25 13:58:16;;;;;;;0.10;0.10;;;;;;;25.50;53.39;101115.41;10518849;28;20071;-74
2022/06/25 14:03:17;;;;;;;0.00;0.00;;;;;;;25.86;52.26;101109.78;10519619;28;20044;-75
2022/06/25 14:08:20;;;;;;;0.28;0.10;;;;;;;25.57;52.92;101119.56;10528203;28;20104;-75
2022/06/25 14:13:22;;;;;;;0.00;0.00;;;;;;;26.25;51.67;101119.84;10553535;28;20039;-75
2022/06/25 14:18:24;;;;;;;0.15;0.15;;;;;;;26.22;48.94;101117.34;10544221;28;20044;-75
2022/06/25 14:23:42;;;;;;;0.00;0.00;;;;;;;26.05;48.01;101106.47;10536199;28;20039;-75
2022/06/25 14:28:44;;;;;;;0.10;0.10;;;;;;;25.96;48.86;101103.25;10565546;28;20054;-75
2022/06/25 14:33:46;;;;;;;0.10;0.10;;;;;;;25.56;49.03;101101.13;10516199;28;20040;-76
2022/06/25 14:44:07;;;;;;;0.10;0.10;;;;;;;25.69;49.87;101091.88;10500178;28;20405;-75
2022/06/25 14:49:11;;;;;;;0.00;0.00;;;;;;;25.28;50.62;101100.22;10495133;28;20105;-75
2022/06/25 14:54:13;;;;;;;0.40;0.40;;;;;;;25.49;49.01;101092.56;10504203;28;20062;-75
2022/06/25 14:59:14;;;;;;;0.00;0.00;;;;;;;25.34;50.39;101092.13;10511619;28;20048;-76
2022/06/25 15:04:18;;;;;;;0.10;0.10;;;;;;;25.91;49.90;101081.44;10516806;28;20479;-75
2022/06/25 15:09:22;;;;;;;0.05;0.00;;;;;;;25.40;49.79;101082.31;10529990;28;20131;-75
2022/06/25 15:14:23;;;;;;;0.25;0.20;;;;;;;25.65;48.54;101077.91;10534574;28;20040;-75
2022/06/25 15:19:29;;;;;;;0.28;0.20;;;;;;;25.74;50.23;101070.59;10517655;28;20054;-75
2022/06/25 15:24:30;;;;;;;0.10;0.10;;;;;;;25.79;48.16;101063.41;10528577;28;20441;-75
2022/06/25 15:29:36;;;;;;;0.00;0.00;;;;;;;25.59;51.03;101062.31;10523094;28;20040;-76
2022/06/25 15:34:46;;;;;;;0.00;0.00;;;;;;;25.80;52.18;101059.88;10526471;28;20040;-75
2022/06/25 15:39:47;;;;;;;0.70;0.13;;;;;;;25.78;51.02;101062.53;10515089;28;20105;-75
2022/06/25 15:44:55;;;;;;;0.40;0.22;;;;;;;26.21;49.49;101048.75;10536758;28;20037;-75
2022/06/25 15:50:00;;;;;;;0.00;0.00;;;;;;;25.63;51.58;101036.69;10539562;28;20471;-75
2022/06/25 15:55:01;;;;;;;0.88;0.15;;;;;;;25.79;52.40;101034.38;10522190;28;20325;-75
2022/06/25 16:00:04;;;;;;;0.35;0.13;;;;;;;25.88;53.37;101026.09;10539198;28;20076;-75
2022/06/25 16:05:07;;;;;;;0.57;0.32;;;;;;;25.72;51.79;101033.72;10523849;28;20055;-76
2022/06/25 16:10:09;;;;;;;0.00;0.00;;;;;;;25.82;51.68;101031.63;10520141;28;20491;-74
2022/06/25 16:15:12;;;;;;;0.13;0.13;;;;;;;25.69;49.26;101030.34;10536332;28;20044;-75
2022/06/25 16:20:13;;;;;;;0.10;0.10;;;;;;;25.92;50.72;101027.75;10523417;28;20109;-75
2022/06/25 16:25:15;;;;;;;0.00;0.00;;;;;;;25.86;52.76;101027.09;10539845;28;20060;-75
2022/06/25 16:30:16;;;;;;;0.00;0.00;;;;;;;25.63;52.94;101019.09;10539020;28;20048;-75
2022/06/25 16:35:18;;;;;;;0.52;0.28;;;;;;;25.29;54.83;101028.13;10541324;28;20040;-75
2022/06/25 16:40:24;;;;;;;0.80;0.25;;;;;;;25.55;53.44;101021.13;10543172;28;20427;-75
2022/06/25 16:45:26;;;;;;;0.00;0.00;;;;;;;25.49;51.04;101024.00;10522145;28;20060;-75
2022/06/25 16:50:28;;;;;;;0.10;0.10;;;;;;;25.62;51.12;101012.09;10521791;28;20498;-75
2022/06/25 16:55:30;;;;;;;7.13;1.10;;;;;;;25.53;49.48;101012.41;10539807;28;20089;-74
2022/06/25 17:00:32;;;;;;;0.30;0.22;;;;;;;25.76;49.48;101006.34;10506123;28;20135;-75
2022/06/25 17:05:37;;;;;;;0.22;0.13;;;;;;;25.84;50.30;101006.03;10519263;28;20051;-76
2022/06/25 17:10:38;;;;;;;0.20;0.20;;;;;;;25.71;47.40;101013.53;10538954;28;20093;-75
2022/06/25 17:15:40;;;;;;;1.02;0.20;;;;;;;25.52;49.60;101005.41;10538165;28;20085;-75
2022/06/25 17:20:42;;;;;;;0.10;0.10;;;;;;;25.69;49.59;101009.22;10519697;28;20134;-75
2022/06/25 17:25:44;;;;;;;0.45;0.30;;;;;;;25.58;51.57;101010.47;10536475;28;20052;-76
2022/06/25 17:30:46;;;;;;;0.73;0.30;;;;;;;25.53;52.14;101007.13;10502725;28;20058;-76
2022/06/25 17:35:48;;;;;;;0.10;0.10;;;;;;;25.34;50.81;100999.84;10537961;28;20036;-76
2022/06/25 17:40:49;;;;;;;0.08;0.08;;;;;;;25.24;52.16;101003.69;10541953;28;20052;-76
2022/06/25 17:45:57;;;;;;;0.08;0.08;;;;;;;24.83;51.89;101013.84;10517959;28;20052;-76
2022/06/25 17:50:59;;;;;;;0.00;0.00;;;;;;;24.83;51.28;101013.84;10560400;28;20071;-77
2022/06/25 17:56:04;;;;;;;0.10;0.10;;;;;;;24.65;52.91;101021.38;10550176;28;20120;-77
2022/06/25 18:01:06;;;;;;;0.20;0.20;;;;;;;24.68;52.45;101021.34;10565860;28;20048;-77
2022/06/25 18:06:08;;;;;;;0.00;0.00;;;;;;;24.62;53.50;101016.19;10536093;28;20055;-75
2022/06/25 18:11:16;;;;;;;0.65;0.20;;;;;;;24.52;52.43;101025.31;10535664;28;20052;-75
2022/06/25 18:16:18;;;;;;;0.28;0.20;;;;;;;24.61;53.62;101025.00;10536090;28;20119;-76
2022/06/25 18:21:22;;;;;;;0.20;0.20;;;;;;;24.49;53.85;101020.13;10535800;28;20478;-76
2022/06/25 18:26:23;;;;;;;0.10;0.10;;;;;;;24.68;53.42;101020.44;10517728;28;20040;-75
2022/06/25 18:31:25;;;;;;;0.20;0.20;;;;;;;24.72;52.55;101030.00;10539950;28;20486;-75
2022/06/25 18:36:27;;;;;;;0.00;0.00;;;;;;;24.82;54.70;101025.31;10536798;28;20052;-75
2022/06/25 18:41:29;;;;;;;0.00;0.00;;;;;;;24.79;56.04;101022.75;10543274;28;20044;-75
2022/06/25 18:46:31;;;;;;;0.30;0.10;;;;;;;24.30;56.78;101028.59;10535381;28;20047;-75
2022/06/25 18:51:36;;;;;;;0.75;0.20;;;;;;;24.10;57.70;101028.28;10534081;28;20071;-76
2022/06/25 18:56:37;;;;;;;0.20;0.13;;;;;;;24.05;56.47;101026.66;10523361;28;20184;-75
2022/06/25 19:01:39;;;;;;;0.10;0.10;;;;;;;23.98;56.47;101032.16;10545893;28;20044;-76
2022/06/25 19:06:40;;;;;;;0.00;0.00;;;;;;;24.02;58.27;101032.00;10526149;28;20064;-75
2022/06/25 19:11:42;;;;;;;1.85;0.75;;;;;;;23.80;58.41;101034.34;10542714;28;20101;-75
2022/06/25 19:16:43;;;;;;;8.48;1.65;;;;;;;23.37;62.34;101035.50;10525463;28;20044;-75
2022/06/25 19:21:46;;;;;;;0.35;0.30;;;;;;;23.34;61.76;101023.28;10545024;28;20503;-75
2022/06/25 19:26:48;;;;;;;0.45;0.22;;;;;;;23.31;61.68;101038.28;10523892;28;20040;-75
2022/06/25 19:31:50;;;;;;;0.00;0.00;;;;;;;22.79;65.17;101036.84;10548091;28;20055;-76
2022/06/25 19:36:51;;;;;;;0.90;0.57;;;;;;;22.79;66.26;101051.72;10543138;28;20443;-75
2022/06/25 19:41:54;;;;;;;0.10;0.10;;;;;;;22.82;70.44;101055.13;10548387;28;20445;-75
2022/06/25 19:46:56;;;;;;;0.00;0.00;;;;;;;22.63;69.34;101064.31;10546652;28;20036;-75
2022/06/25 19:51:58;;;;;;;0.60;0.32;;;;;;;22.50;69.47;101072.47;10541073;28;20275;-75
2022/06/25 19:56:59;;;;;;;0.10;0.10;;;;;;;22.35;71.11;101084.13;10536829;28;20047;-75
2022/06/25 20:02:01;;;;;;;0.00;0.00;;;;;;;22.30;75.86;101095.63;10541344;28;20079;-75
2022/06/25 20:07:03;;;;;;;0.40;0.20;;;;;;;21.44;78.06;101104.09;10526639;28;20044;-75
2022/06/25 20:12:05;;;;;;;0.00;0.00;;;;;;;21.53;73.64;101103.97;10540555;28;20048;-75
2022/06/25 20:17:07;;;;;;;0.08;0.05;;;;;;;21.62;73.37;101091.63;10540873;28;20046;-75
2022/06/25 20:22:09;;;;;;;0.10;0.05;;;;;;;21.37;75.04;101099.84;10540912;28;20047;-74
2022/06/25 20:27:11;;;;;;;0.15;0.10;;;;;;;21.53;77.63;101101.34;10540120;28;20051;-75
2022/06/25 20:32:12;;;;;;;0.65;0.30;;;;;;;21.55;78.80;101107.44;10539681;28;20044;-74
2022/06/25 20:37:14;;;;;;;0.00;0.00;;;;;;;21.39;81.12;101098.09;10540039;28;20544;-75
2022/06/25 20:42:21;;;;;;;0.50;0.38;;;;;;;21.52;81.45;101096.13;10539579;28;20033;-75
2022/06/25 20:47:22;;;;;;;0.00;0.00;;;;;;;21.18;84.70;101089.69;10520618;28;20506;-75
2022/06/25 20:52:24;;;;;;;0.10;0.05;;;;;;;21.25;85.66;101100.91;10541849;28;20453;-75
2022/06/25 20:57:28;;;;;;;0.08;0.08;;;;;;;21.27;86.59;101099.13;10519316;28;20036;-74
2022/06/25 21:02:30;;;;;;;0.05;0.05;;;;;;;21.33;86.60;101098.19;10532190;28;20044;-74
2022/06/25 21:12:53;;;;;;;3.13;0.20;;;;;;;21.03;88.55;101089.91;10538135;28;20543;-74
2022/06/25 21:17:55;;;;;;;0.00;0.00;;;;;;;20.88;87.14;101090.97;10519157;28;20055;-75
2022/06/25 21:22:58;;;;;;;0.00;0.00;;;;;;;20.69;88.96;101091.22;10535812;28;20093;-75
2022/06/25 21:28:00;;;;;;;0.00;0.00;;;;;;;20.16;93.80;101090.97;10528644;28;20047;-75
2022/06/25 21:33:01;;;;;;;0.32;0.28;;;;;;;20.21;91.83;101091.78;10502062;28;20036;-76
2022/06/25 21:38:03;;;;;;;0.00;0.00;;;;;;;19.82;96.24;101096.50;10515042;28;20093;-75
2022/06/25 21:43:08;;;;;;;0.63;0.30;;;;;;;19.55;100.00;101108.94;10524384;28;20139;-76
2022/06/25 21:48:09;;;;;;;0.10;0.10;;;;;;;20.01;95.22;101098.97;10533099;28;20040;-76
2022/06/25 21:53:11;;;;;;;0.20;0.20;;;;;;;19.75;95.92;101092.22;10530715;28;20062;-76
2022/06/25 21:58:13;;;;;;;0.28;0.15;;;;;;;19.89;93.00;101084.25;10535922;28;20046;-75
2022/06/25 22:03:16;;;;;;;0.00;0.00;;;;;;;19.66;93.02;101083.59;10536870;28;20051;-76
2022/06/25 22:08:18;;;;;;;0.30;0.25;;;;;;;19.59;93.59;101091.47;10512089;28;20051;-76
2022/06/25 22:13:20;;;;;;;0.22;0.22;;;;;;;19.40;91.72;101080.34;10491454;28;20048;-76
2022/06/25 22:18:22;;;;;;;0.30;0.20;;;;;;;19.20;97.77;101094.38;10499403;28;20044;-76
2022/06/25 22:23:25;;;;;;;0.47;0.30;;;;;;;19.15;98.60;101099.66;10516766;28;20389;-76
2022/06/25 22:28:27;;;;;;;0.10;0.10;;;;;;;19.13;98.46;101096.19;10527783;28;20049;-75
2022/06/25 22:33:29;;;;;;;0.00;0.00;;;;;;;19.07;97.23;101093.59;10510226;28;20561;-77
2022/06/25 22:38:30;;;;;;;0.00;0.00;;;;;;;18.87;94.92;101091.09;10522362;28;20078;-75
2022/06/25 22:43:32;;;;;;;0.30;0.20;;;;;;;18.79;97.90;101096.34;10534025;28;20078;-75
2022/06/25 22:48:34;;;;;;;1.52;0.17;;;;;;;18.71;96.75;101091.19;10526151;28;20117;-75
2022/06/25 22:53:35;;;;;;;0.43;0.28;;;;;;;18.70;99.07;101088.56;10551953;28;20053;-74
2022/06/25 22:58:37;;;;;;;0.30;0.28;;;;;;;18.65;100.00;101080.75;10549578;28;20032;-76
2022/06/25 23:03:39;;;;;;;0.20;0.20;;;;;;;18.64;100.00;101078.16;10531169;28;20051;-75
2022/06/25 23:08:40;;;;;;;0.10;0.10;;;;;;;18.65;100.00;101072.91;10536298;28;20048;-74
2022/06/25 23:13:42;;;;;;;0.25;0.25;;;;;;;18.70;100.00;101068.56;10519900;28;20495;-76
2022/06/25 23:18:46;;;;;;;0.47;0.35;;;;;;;18.66;100.00;101066.81;10534370;28;20044;-76
2022/06/25 23:23:48;;;;;;;0.15;0.15;;;;;;;18.54;100.00;101077.34;10523779;28;20458;-76
2022/06/25 23:28:50;;;;;;;0.95;0.88;;;;;;;17.75;100.00;101106.16;10533571;28;20036;-78
2022/06/25 23:33:51;;;;;;;2.70;0.88;;;;;;;17.97;100.00;101147.88;10522253;28;20100;-77
2022/06/25 23:38:58;;;;;;;0.82;0.55;;;;;;;18.35;100.00;101153.06;10532372;28;20032;-76
2022/06/25 23:44:26;;;;;;;0.93;0.65;;;;;;;18.29;100.00;101152.19;10534133;28;20048;-75
2022/06/25 23:49:28;;;;;;;2.45;0.82;;;;;;;18.47;100.00;101153.88;10560287;28;20391;-75